Winthrop Harbor, Illinois
Current Conditions -  °F | °C
As of 11:55 PM on Friday 24 Oct 2014 (Local Time) from KUGN Reporting Station
Overcast Overcast  
Wind Chill: 56°   Ceiling: 4500
Heat Index: 56°   Visibility: 10mi
Dew Point: 49°   Wind: 6mph
Humidity: 77%   Direction: 220°SW
Pressure: 29.91"   Gusts: NA
Location:  42.48°N, 87.82°W
Report Text: KUGN 250455Z AUTO 22005KT 10SM SCT035 OVC045 13/09 A2991 RMK AO2 SLP125 T01330094
Loading
Personal Weather Stations






























Interactive Weather Map
Tropical Storm Tracking
New forecast layout! Learn more

10-Day Weather Forecast

Advertisements
Track Severe Weather on mobile